createdAt,value
2023-03-05T00:01:54.054Z,2.97
2023-03-05T00:04:23.554Z,3.02
2023-03-05T00:06:52.647Z,3.06
2023-03-05T00:09:21.691Z,3.19
2023-03-05T00:11:50.725Z,3.17
2023-03-05T00:14:19.827Z,3.10
2023-03-05T00:16:49.211Z,3.03
2023-03-05T00:19:19.637Z,3.15
2023-03-05T00:21:48.709Z,3.20
2023-03-05T00:24:19.549Z,3.08
2023-03-05T00:26:49.684Z,3.20
2023-03-05T00:29:21.773Z,3.09
2023-03-05T00:31:51.444Z,3.08
2023-03-05T00:34:22.563Z,3.05
2023-03-05T00:36:53.926Z,3.14
2023-03-05T00:39:23.674Z,3.14
2023-03-05T00:41:52.750Z,3.06
2023-03-05T00:44:22.059Z,3.18
2023-03-05T00:46:52.229Z,3.17
2023-03-05T00:49:22.696Z,3.18
2023-03-05T00:51:51.820Z,3.02
2023-03-05T00:54:20.948Z,3.11
2023-03-05T00:56:50.116Z,3.12
2023-03-05T00:59:19.118Z,3.10
2023-03-05T01:01:48.242Z,2.72
2023-03-05T01:04:17.339Z,2.74
2023-03-05T01:06:47.816Z,2.62
2023-03-05T01:09:17.405Z,2.71
2023-03-05T01:11:46.400Z,2.62
2023-03-05T01:14:15.767Z,2.75
2023-03-05T01:16:44.930Z,2.64
2023-03-05T01:19:15.840Z,2.54
2023-03-05T01:21:45.176Z,2.33
2023-03-05T01:24:15.591Z,2.35
2023-03-05T01:26:44.664Z,2.30
2023-03-05T01:29:13.703Z,2.28
2023-03-05T01:31:42.916Z,2.24
2023-03-05T01:34:12.174Z,2.36
2023-03-05T01:36:43.163Z,2.23
2023-03-05T01:39:13.087Z,2.22
2023-03-05T01:41:43.503Z,2.06
2023-03-05T01:44:23.003Z,2.21
2023-03-05T01:46:52.588Z,2.20
2023-03-05T01:49:26.175Z,2.21
2023-03-05T01:52:03.075Z,2.13
2023-03-05T01:54:36.381Z,2.16
2023-03-05T01:57:12.570Z,2.05
2023-03-05T01:59:45.266Z,2.32
2023-03-05T02:02:15.112Z,2.23
2023-03-05T02:04:47.392Z,2.25
2023-03-05T02:07:17.738Z,2.27
2023-03-05T02:09:46.770Z,2.22
2023-03-05T02:12:17.497Z,2.20
2023-03-05T02:14:49.412Z,2.15
2023-03-05T02:17:18.890Z,2.23
2023-03-05T02:19:49.930Z,2.16
2023-03-05T02:22:21.984Z,2.10
2023-03-05T02:24:51.755Z,2.10
2023-03-05T02:27:27.123Z,2.06
2023-03-05T02:29:56.744Z,2.10
2023-03-05T02:32:25.755Z,2.24
2023-03-05T02:34:55.067Z,2.25
2023-03-05T02:37:25.927Z,2.19
2023-03-05T02:39:54.962Z,2.15
2023-03-05T02:42:24.096Z,2.21
2023-03-05T02:44:53.436Z,2.15
2023-03-05T02:47:22.472Z,2.11
2023-03-05T02:49:52.760Z,2.13
2023-03-05T02:52:23.159Z,1.96
2023-03-05T02:54:54.862Z,1.94
2023-03-05T02:57:26.018Z,2.06
2023-03-05T02:59:55.456Z,1.88
2023-03-05T03:02:24.964Z,1.89
2023-03-05T03:04:54.009Z,1.98
2023-03-05T03:07:23.141Z,1.89
2023-03-05T03:09:52.342Z,1.95
2023-03-05T03:12:23.085Z,2.01
2023-03-05T03:14:52.406Z,2.04
2023-03-05T03:17:21.515Z,1.95
2023-03-05T03:19:50.619Z,1.86
2023-03-05T03:22:19.794Z,1.85
2023-03-05T03:24:48.898Z,1.69
2023-03-05T03:27:17.909Z,1.64
2023-03-05T03:29:48.548Z,1.49
2023-03-05T03:32:17.801Z,1.47
2023-03-05T03:34:48.068Z,1.39
2023-03-05T03:37:17.272Z,1.35
2023-03-05T03:39:46.315Z,1.45
2023-03-05T03:42:17.615Z,1.31
2023-03-05T03:44:48.368Z,1.36
2023-03-05T03:47:17.891Z,1.45
2023-03-05T03:49:46.931Z,1.33
2023-03-05T03:52:15.947Z,1.32
2023-03-05T03:54:44.934Z,1.40
2023-03-05T03:57:13.976Z,1.41
2023-03-05T03:59:45.495Z,1.39
2023-03-05T04:02:15.941Z,1.43
2023-03-05T04:04:45.065Z,1.57
2023-03-05T04:07:14.281Z,1.56
2023-03-05T04:09:43.457Z,1.64
2023-03-05T04:12:17.780Z,1.49
2023-03-05T04:14:47.910Z,1.51
2023-03-05T04:17:18.709Z,1.54
2023-03-05T04:19:47.765Z,1.41
2023-03-05T04:22:18.362Z,1.45
2023-03-05T04:24:47.483Z,1.51
2023-03-05T04:27:16.541Z,1.37
2023-03-05T04:29:45.674Z,1.45
2023-03-05T04:32:15.043Z,1.41
2023-03-05T04:34:45.520Z,1.49
2023-03-05T04:37:14.536Z,1.56
2023-03-05T04:39:43.649Z,1.51
2023-03-05T04:42:12.742Z,1.56
2023-03-05T04:44:41.794Z,1.49
2023-03-05T04:47:10.860Z,1.46
2023-03-05T04:49:39.952Z,1.56
2023-03-05T04:52:11.560Z,1.52
2023-03-05T04:54:40.999Z,1.50
2023-03-05T04:57:10.380Z,1.59
2023-03-05T04:59:39.796Z,1.51
2023-03-05T05:02:08.834Z,1.52
2023-03-05T05:04:38.052Z,1.64
2023-03-05T05:07:08.057Z,1.50
2023-03-05T05:09:39.915Z,1.54
2023-03-05T05:12:10.442Z,1.52
2023-03-05T05:14:39.513Z,1.58
2023-03-05T05:17:08.665Z,1.47
2023-03-05T05:19:37.724Z,1.65
2023-03-05T05:22:06.826Z,1.62
2023-03-05T05:24:37.228Z,1.49
2023-03-05T05:27:06.352Z,1.32
2023-03-05T05:29:35.434Z,1.48
2023-03-05T05:32:04.630Z,1.50
2023-03-05T05:34:33.749Z,1.60
2023-03-05T05:37:02.772Z,1.43
2023-03-05T05:39:31.823Z,1.35
2023-03-05T05:42:02.350Z,1.45
2023-03-05T05:44:31.434Z,1.42
2023-03-05T05:47:00.459Z,1.41
2023-03-05T05:49:29.501Z,1.38
2023-03-05T05:51:59.111Z,1.44
2023-03-05T05:54:28.165Z,1.48
2023-03-05T05:56:57.192Z,1.38
2023-03-05T05:59:27.973Z,1.48
2023-03-05T06:01:57.061Z,1.59
2023-03-05T06:04:26.174Z,1.65
2023-03-05T06:06:55.175Z,1.68
2023-03-05T06:09:24.204Z,1.64
2023-03-05T06:11:53.270Z,1.56
2023-03-05T06:14:22.408Z,1.60
2023-03-05T06:16:52.854Z,1.63
2023-03-05T06:19:21.938Z,1.73
2023-03-05T06:21:50.960Z,1.63
2023-03-05T06:24:20.253Z,1.70
2023-03-05T06:26:49.494Z,1.72
2023-03-05T06:29:19.110Z,1.74
2023-03-05T06:31:48.126Z,1.72
2023-03-05T06:34:18.495Z,1.81
2023-03-05T06:36:47.536Z,1.67
2023-03-05T06:39:17.168Z,1.73
2023-03-05T06:41:46.167Z,1.86
2023-03-05T06:44:15.224Z,1.87
2023-03-05T06:46:44.280Z,1.88
2023-03-05T06:49:13.361Z,2.02
2023-03-05T06:51:43.750Z,1.89
2023-03-05T06:54:15.276Z,2.02
2023-03-05T06:56:46.332Z,1.96
2023-03-05T06:59:16.873Z,2.11
2023-03-05T07:01:46.355Z,2.20
2023-03-05T07:04:16.188Z,2.15
2023-03-05T07:06:47.133Z,2.29
2023-03-05T07:09:17.779Z,2.09
2023-03-05T07:11:46.827Z,2.24
2023-03-05T07:14:15.871Z,2.10
2023-03-05T07:16:45.285Z,2.21
2023-03-05T07:19:14.389Z,2.32
2023-03-05T07:21:43.398Z,2.32
2023-03-05T07:24:14.837Z,2.38
2023-03-05T07:26:43.915Z,2.41
2023-03-05T07:29:13.123Z,2.50
2023-03-05T07:31:42.171Z,2.47
2023-03-05T07:34:11.742Z,2.43
2023-03-05T07:36:42.254Z,2.78
2023-03-05T07:39:14.508Z,2.48
2023-03-05T07:41:43.617Z,2.83
2023-03-05T07:44:12.723Z,2.77
2023-03-05T07:46:42.592Z,2.66
2023-03-05T07:49:11.630Z,2.78
2023-03-05T07:51:42.345Z,2.58
2023-03-05T07:54:13.790Z,2.89
2023-03-05T07:56:42.962Z,2.95
2023-03-05T07:59:13.996Z,3.00
2023-03-05T08:01:43.142Z,3.19
2023-03-05T08:04:12.230Z,2.94
2023-03-05T08:06:41.905Z,3.24
2023-03-05T08:09:11.206Z,3.58
2023-03-05T08:11:42.479Z,3.29
2023-03-05T08:14:12.624Z,3.26
2023-03-05T08:16:41.995Z,3.04
2023-03-05T08:19:12.577Z,3.54
2023-03-05T08:21:41.689Z,3.17
2023-03-05T08:24:12.313Z,3.38
2023-03-05T08:26:43.556Z,3.22
2023-03-05T08:29:13.001Z,3.20
2023-03-05T08:31:45.774Z,3.44
2023-03-05T08:34:14.919Z,3.52
2023-03-05T08:36:43.915Z,3.84
2023-03-05T08:39:12.945Z,3.64
2023-03-05T08:41:43.493Z,3.71
2023-03-05T08:44:12.898Z,3.58
2023-03-05T08:46:42.217Z,4.04
2023-03-05T08:49:11.878Z,4.01
2023-03-05T08:51:40.902Z,3.75
2023-03-05T08:54:10.356Z,3.54
2023-03-05T08:56:39.447Z,3.79
2023-03-05T08:59:12.650Z,4.23
2023-03-05T09:01:42.655Z,4.51
2023-03-05T09:04:11.958Z,4.16
2023-03-05T09:06:41.107Z,4.30
2023-03-05T09:09:10.509Z,4.12
2023-03-05T09:11:39.625Z,4.59
2023-03-05T09:14:10.904Z,4.47
2023-03-05T09:16:41.408Z,4.79
2023-03-05T09:19:12.702Z,4.82
2023-03-05T09:21:42.059Z,5.32
2023-03-05T09:24:11.836Z,4.50
2023-03-05T09:26:42.086Z,4.40
2023-03-05T09:29:12.853Z,4.84
2023-03-05T09:31:43.218Z,4.43
2023-03-05T09:34:13.213Z,4.67
2023-03-05T09:36:42.230Z,4.71
2023-03-05T09:39:11.272Z,4.79
2023-03-05T09:42:04.709Z,4.65
2023-03-05T09:44:44.393Z,5.17
2023-03-05T09:47:28.031Z,5.19
2023-03-05T09:50:02.296Z,5.29
2023-03-05T09:52:40.145Z,4.97
2023-03-05T09:55:15.498Z,4.26
2023-03-05T09:57:50.517Z,4.36
2023-03-05T10:00:34.379Z,3.71
2023-03-05T10:03:07.635Z,3.97
2023-03-05T10:06:01.980Z,3.74
2023-03-05T10:08:46.855Z,3.91
2023-03-05T10:11:38.760Z,3.71
2023-03-05T10:14:15.193Z,3.92
2023-03-05T10:17:12.148Z,3.74
2023-03-05T10:20:01.527Z,3.61
2023-03-05T10:22:32.943Z,3.99
2023-03-05T10:25:21.689Z,4.63
2023-03-05T10:27:54.270Z,4.91
2023-03-05T10:30:54.689Z,5.02
2023-03-05T10:33:35.676Z,5.60
2023-03-05T10:36:46.773Z,5.73
2023-03-05T10:39:48.885Z,5.65
2023-03-05T10:42:26.669Z,5.88
2023-03-05T10:44:58.610Z,5.40
2023-03-05T10:47:32.796Z,4.92
2023-03-05T10:50:03.246Z,5.51
2023-03-05T10:52:37.007Z,5.42
2023-03-05T10:55:17.622Z,5.59
2023-03-05T10:57:47.309Z,5.42
2023-03-05T11:00:20.467Z,5.62
2023-03-05T11:02:58.911Z,5.53
2023-03-05T11:05:45.233Z,5.66
2023-03-05T11:08:30.800Z,4.71
2023-03-05T11:11:12.617Z,5.17
2023-03-05T11:13:52.496Z,5.21
2023-03-05T11:16:24.747Z,4.81
2023-03-05T11:19:18.530Z,4.35
2023-03-05T11:22:10.752Z,3.46
2023-03-05T11:24:41.270Z,1.42
2023-03-05T11:27:27.035Z,0.98
2023-03-05T11:29:56.467Z,0.88
2023-03-05T11:32:27.498Z,0.98
2023-03-05T11:34:58.246Z,1.05
2023-03-05T11:37:30.553Z,1.59
2023-03-05T11:40:20.934Z,2.08
2023-03-05T11:42:56.644Z,2.65
2023-03-05T11:45:27.904Z,3.14
2023-03-05T11:48:01.453Z,3.63
2023-03-05T11:50:32.695Z,3.82
2023-03-05T11:53:09.421Z,3.92
2023-03-05T11:55:43.544Z,4.53
2023-03-05T11:58:27.525Z,5.00
2023-03-05T12:00:57.138Z,5.16
2023-03-05T12:03:30.674Z,6.11
2023-03-05T12:06:06.074Z,5.77
2023-03-05T12:08:39.438Z,5.48
2023-03-05T12:11:16.537Z,5.50
2023-03-05T12:13:48.974Z,5.49
2023-03-05T12:16:29.547Z,5.91
2023-03-05T12:19:20.262Z,5.60
2023-03-05T12:21:53.013Z,5.59
2023-03-05T12:24:39.783Z,5.35
2023-03-05T12:27:12.033Z,5.52
2023-03-05T12:29:46.691Z,5.16
2023-03-05T12:32:58.652Z,5.08
2023-03-05T12:35:30.481Z,5.28
2023-03-05T12:38:24.240Z,5.27
2023-03-05T12:41:43.454Z,7.32
2023-03-05T12:44:20.701Z,5.06
2023-03-05T12:47:19.233Z,3.53
2023-03-05T12:49:49.615Z,3.51
2023-03-05T12:52:25.990Z,4.16
2023-03-05T12:55:04.622Z,3.80
2023-03-05T12:57:35.762Z,3.91
2023-03-05T13:00:10.853Z,3.79
2023-03-05T13:02:43.466Z,3.13
2023-03-05T13:05:22.516Z,3.45
2023-03-05T13:07:51.881Z,3.49
2023-03-05T13:10:26.703Z,3.31
2023-03-05T13:12:58.480Z,3.51
2023-03-05T13:15:28.308Z,3.60
2023-03-05T13:18:01.004Z,3.51
2023-03-05T13:20:34.945Z,3.68
2023-03-05T13:23:20.517Z,3.93
2023-03-05T13:26:01.712Z,3.98
2023-03-05T13:28:33.816Z,3.85
2023-03-05T13:31:05.705Z,4.01
2023-03-05T13:33:36.708Z,3.85
2023-03-05T13:36:07.251Z,3.87
2023-03-05T13:38:41.187Z,4.04
2023-03-05T13:41:28.282Z,4.35
2023-03-05T13:44:00.516Z,4.57
2023-03-05T13:46:32.391Z,4.45
2023-03-05T13:49:22.011Z,4.40
2023-03-05T13:51:52.485Z,4.39
2023-03-05T13:54:22.958Z,4.46
2023-03-05T13:56:54.693Z,4.42
2023-03-05T13:59:28.160Z,4.42
2023-03-05T14:01:58.489Z,4.65
2023-03-05T14:04:29.674Z,4.90
2023-03-05T14:07:02.927Z,5.03
2023-03-05T14:09:45.805Z,4.94
2023-03-05T14:12:28.151Z,5.09
2023-03-05T14:14:59.856Z,5.04
2023-03-05T14:17:40.708Z,5.10
2023-03-05T14:20:24.035Z,5.10
2023-03-05T14:22:55.048Z,5.37
2023-03-05T14:25:34.857Z,5.46
2023-03-05T14:28:06.723Z,5.16
2023-03-05T14:30:37.551Z,5.62
2023-03-05T14:33:06.810Z,5.63
2023-03-05T14:35:37.189Z,5.55
2023-03-05T14:38:08.545Z,5.49
2023-03-05T14:40:38.378Z,5.29
2023-03-05T14:43:11.565Z,5.45
2023-03-05T14:45:44.196Z,5.32
2023-03-05T14:48:15.330Z,5.14
2023-03-05T14:50:46.960Z,5.31
2023-03-05T14:53:18.811Z,5.17
2023-03-05T14:55:50.775Z,5.10
2023-03-05T14:58:21.918Z,5.16
2023-03-05T15:00:52.523Z,5.04
2023-03-05T15:03:23.015Z,5.10
2023-03-05T15:05:55.229Z,4.90
2023-03-05T15:08:27.094Z,5.03
2023-03-05T15:10:56.587Z,4.94
2023-03-05T15:13:25.738Z,4.92
2023-03-05T15:15:56.489Z,5.09
2023-03-05T15:18:25.510Z,4.77
2023-03-05T15:20:54.854Z,4.50
2023-03-05T15:23:24.232Z,4.61
2023-03-05T15:25:53.316Z,4.57
2023-03-05T15:28:23.027Z,4.39
2023-03-05T15:30:53.097Z,4.52
2023-03-05T15:33:29.859Z,4.63
2023-03-05T15:36:00.480Z,4.37
2023-03-05T15:38:29.762Z,4.20
2023-03-05T15:41:03.499Z,4.36
2023-03-05T15:43:33.816Z,4.33
2023-03-05T15:46:10.919Z,4.40
2023-03-05T15:48:52.607Z,4.46
2023-03-05T15:51:26.438Z,4.35
2023-03-05T15:54:00.144Z,4.36
2023-03-05T15:56:30.725Z,4.10
2023-03-05T15:59:06.379Z,4.15
2023-03-05T16:01:36.901Z,4.08
2023-03-05T16:04:08.796Z,3.90
2023-03-05T16:06:42.236Z,4.05
2023-03-05T16:09:12.422Z,4.14
2023-03-05T16:11:50.354Z,4.12
2023-03-05T16:14:29.156Z,4.15
2023-03-05T16:17:05.841Z,4.03
2023-03-05T16:19:41.083Z,3.99
2023-03-05T16:22:10.452Z,3.85
2023-03-05T16:24:39.509Z,4.01
2023-03-05T16:27:08.969Z,3.95
2023-03-05T16:29:38.172Z,3.97
2023-03-05T16:32:08.095Z,3.80
2023-03-05T16:34:38.685Z,3.89
2023-03-05T16:37:07.976Z,3.89
2023-03-05T16:39:37.422Z,3.87
2023-03-05T16:42:08.456Z,3.96
2023-03-05T16:44:37.768Z,3.81
2023-03-05T16:47:07.551Z,3.72
2023-03-05T16:49:38.326Z,3.72
2023-03-05T16:52:18.309Z,3.75
2023-03-05T16:54:48.276Z,3.79
2023-03-05T16:57:18.087Z,3.68
2023-03-05T16:59:47.372Z,3.74
2023-03-05T17:02:16.615Z,3.74
2023-03-05T17:04:47.468Z,3.90
2023-03-05T17:07:16.818Z,3.90
2023-03-05T17:09:48.110Z,3.65
2023-03-05T17:12:17.284Z,3.60
2023-03-05T17:14:47.211Z,3.45
2023-03-05T17:17:17.045Z,3.39
2023-03-05T17:19:49.320Z,3.24
2023-03-05T17:22:18.710Z,3.20
2023-03-05T17:24:48.158Z,3.26
2023-03-05T17:27:20.384Z,3.20
2023-03-05T17:29:50.086Z,3.12
2023-03-05T17:32:19.473Z,3.21
2023-03-05T17:34:53.485Z,3.09
2023-03-05T17:37:23.732Z,3.15
2023-03-05T17:39:53.677Z,3.14
2023-03-05T17:42:23.061Z,2.88
2023-03-05T17:44:52.696Z,2.95
2023-03-05T17:47:23.421Z,2.63
2023-03-05T17:49:55.126Z,2.63
2023-03-05T17:52:25.331Z,2.73
2023-03-05T17:54:55.329Z,2.65
2023-03-05T17:57:25.749Z,2.73
2023-03-05T17:59:55.244Z,2.55
2023-03-05T18:02:24.743Z,2.62
2023-03-05T18:04:56.626Z,2.60
2023-03-05T18:07:26.012Z,2.41
2023-03-05T18:09:55.203Z,2.55
2023-03-05T18:12:24.298Z,2.25
2023-03-05T18:14:54.620Z,2.37
2023-03-05T18:17:23.811Z,2.35
2023-03-05T18:19:54.846Z,2.31
2023-03-05T18:22:23.929Z,2.35
2023-03-05T18:24:53.028Z,2.29
2023-03-05T18:27:22.284Z,2.13
2023-03-05T18:29:54.063Z,2.04
2023-03-05T18:32:24.537Z,2.03
2023-03-05T18:34:55.093Z,2.02
2023-03-05T18:37:24.149Z,1.94
2023-03-05T18:39:53.567Z,2.16
2023-03-05T18:42:22.641Z,2.03
2023-03-05T18:44:51.752Z,2.18
2023-03-05T18:47:21.383Z,2.13
2023-03-05T18:49:50.541Z,1.99
2023-03-05T18:52:20.921Z,2.06
2023-03-05T18:54:50.011Z,2.12
2023-03-05T18:57:19.129Z,2.07
2023-03-05T18:59:48.311Z,1.90
2023-03-05T19:02:21.307Z,2.05
2023-03-05T19:04:50.551Z,2.02
2023-03-05T19:07:20.998Z,1.89
2023-03-05T19:09:54.641Z,2.04
2023-03-05T19:12:26.447Z,1.90
2023-03-05T19:14:55.447Z,1.98
2023-03-05T19:17:24.539Z,1.91
2023-03-05T19:19:54.423Z,1.72
2023-03-05T19:22:26.490Z,1.67
2023-03-05T19:24:55.754Z,1.77
2023-03-05T19:27:24.963Z,1.67
2023-03-05T19:29:54.389Z,1.60
2023-03-05T19:32:24.049Z,1.61
2023-03-05T19:34:56.763Z,1.79
2023-03-05T19:37:27.852Z,1.71
2023-03-05T19:39:56.859Z,1.78
2023-03-05T19:42:25.953Z,1.71
2023-03-05T19:44:56.211Z,1.67
2023-03-05T19:47:26.409Z,1.69
2023-03-05T19:49:55.575Z,1.63
2023-03-05T19:52:26.706Z,1.65
2023-03-05T19:54:56.127Z,1.58
2023-03-05T19:57:25.209Z,1.70
2023-03-05T19:59:54.619Z,1.51
2023-03-05T20:02:23.936Z,1.52
2023-03-05T20:04:55.382Z,1.66
2023-03-05T20:07:25.880Z,1.59
2023-03-05T20:09:55.486Z,1.32
2023-03-05T20:12:24.817Z,1.35
2023-03-05T20:14:53.840Z,1.44
2023-03-05T20:17:22.898Z,1.26
2023-03-05T20:19:51.947Z,1.34
2023-03-05T20:22:20.935Z,1.32
2023-03-05T20:24:51.512Z,1.18
2023-03-05T20:27:20.543Z,1.17
2023-03-05T20:29:49.817Z,1.18
2023-03-05T20:32:19.011Z,1.21
2023-03-05T20:34:51.027Z,1.23
2023-03-05T20:37:20.507Z,1.19
2023-03-05T20:39:52.783Z,1.23
2023-03-05T20:42:21.818Z,1.22
2023-03-05T20:44:50.843Z,1.20
2023-03-05T20:47:32.185Z,1.18
2023-03-05T20:50:01.328Z,1.18
2023-03-05T20:52:30.906Z,1.23
2023-03-05T20:55:01.864Z,1.26
2023-03-05T20:57:31.219Z,1.15
2023-03-05T21:00:00.501Z,1.12
2023-03-05T21:02:29.888Z,1.01
2023-03-05T21:05:01.864Z,1.15
2023-03-05T21:07:31.067Z,1.22
2023-03-05T21:10:01.509Z,1.16
2023-03-05T21:12:32.288Z,1.24
2023-03-05T21:15:01.455Z,1.24
2023-03-05T21:17:30.445Z,1.23
2023-03-05T21:19:59.551Z,1.22
2023-03-05T21:22:28.597Z,1.19
2023-03-05T21:25:03.489Z,1.18
2023-03-05T21:27:34.041Z,1.19
2023-03-05T21:30:03.222Z,1.14
2023-03-05T21:32:32.330Z,1.02
2023-03-05T21:35:01.509Z,1.11
2023-03-05T21:37:30.613Z,1.12
2023-03-05T21:39:59.634Z,1.18
2023-03-05T21:42:28.755Z,1.13
2023-03-05T21:44:59.152Z,1.17
2023-03-05T21:47:28.239Z,1.11
2023-03-05T21:49:57.481Z,1.24
2023-03-05T21:52:28.770Z,1.12
2023-03-05T21:54:57.954Z,1.22
2023-03-05T21:57:27.833Z,1.18
2023-03-05T21:59:58.535Z,1.08
2023-03-05T22:02:27.898Z,1.18
2023-03-05T22:04:56.928Z,1.16
2023-03-05T22:07:26.615Z,0.93
2023-03-05T22:09:56.681Z,1.03
2023-03-05T22:12:41.695Z,1.15
2023-03-05T22:15:12.852Z,1.23
2023-03-05T22:17:41.898Z,1.19
2023-03-05T22:20:12.532Z,1.17
2023-03-05T22:22:41.652Z,1.15
2023-03-05T22:25:12.957Z,1.17
2023-03-05T22:27:42.640Z,1.15
2023-03-05T22:30:14.603Z,1.21
2023-03-05T22:32:43.599Z,1.27
2023-03-05T22:35:15.677Z,1.33
2023-03-05T22:37:45.346Z,1.17
2023-03-05T22:40:17.028Z,1.18
2023-03-05T22:42:46.169Z,1.08
2023-03-05T22:45:18.540Z,1.12
2023-03-05T22:47:49.526Z,1.22
2023-03-05T22:50:19.161Z,1.28
2023-03-05T22:52:48.239Z,1.06
2023-03-05T22:55:18.120Z,1.19
2023-03-05T22:57:47.574Z,1.05
2023-03-05T23:00:21.663Z,1.14
2023-03-05T23:02:52.164Z,1.17
2023-03-05T23:05:21.854Z,1.20
2023-03-05T23:07:50.937Z,1.17
2023-03-05T23:10:23.463Z,1.01
2023-03-05T23:12:55.337Z,1.09
2023-03-05T23:15:28.307Z,1.13
2023-03-05T23:17:57.807Z,0.97
2023-03-05T23:20:29.309Z,0.88
2023-03-05T23:22:58.669Z,0.89
2023-03-05T23:25:29.848Z,0.97
2023-03-05T23:27:59.775Z,1.04
2023-03-05T23:30:32.124Z,0.98
2023-03-05T23:33:04.424Z,1.01
2023-03-05T23:35:36.272Z,1.08
2023-03-05T23:38:08.054Z,1.04
2023-03-05T23:40:40.884Z,1.03
2023-03-05T23:43:10.148Z,0.98
2023-03-05T23:45:42.572Z,0.99
2023-03-05T23:48:12.045Z,1.08
2023-03-05T23:50:43.173Z,1.13
2023-03-05T23:53:15.965Z,1.06
2023-03-05T23:55:46.115Z,0.96
2023-03-05T23:58:15.391Z,1.03
